Terminal Aerodrome Forecast
Issued by NWS

Home | Current Version | Previous Version | Text Only | Print | Product List | Glossary On
Versions: 1 2 3 4 5 6 7 8 9 10 11 12
053
FTUS46 KLOX 021723
TAFBUR
TAF
KBUR 021723Z 0218/0318 04010G20KT P6SM SKC
     FM022000 03015G25KT P6SM SKC
     FM030000 02015KT P6SM SKC
     FM030600 34010KT P6SM SKC WS010/05035KT=

USA.gov is the U.S. government's official web portal to all federal, state and local government web resources and services.